Time;durP1;ratioP1;P1;durP2;ratioP2;P2;SDS_P1;SDS_P2;PMS_P1;PMS_P2;Temp;Humidity;BMP_temperature;BMP_pressure;BME280_temperature;BME280_humidity;BME280_pressure;Samples;Min_cycle;Max_cycle;Signal;HPM_P1;HPM_P2
2024/01/04 00:00:28;;;;;;;4.47;1.17;;;8.80;99.90;;;;;;5081360;28;20031;-91
2024/01/04 00:02:54;;;;;;;5.20;1.85;;;8.80;99.90;;;;;;5064056;28;20024;-90
2024/01/04 00:05:20;;;;;;;4.55;1.10;;;8.80;99.90;;;;;;5082174;28;20070;-90
2024/01/04 00:07:46;;;;;;;7.35;3.92;;;8.80;99.90;;;;;;5081438;28;20024;-90
2024/01/04 00:10:13;;;;;;;4.93;1.05;;;8.80;99.90;;;;;;5063610;28;20036;-92
2024/01/04 00:12:39;;;;;;;5.35;1.90;;;8.90;99.90;;;;;;5067355;28;20032;-90
2024/01/04 00:15:05;;;;;;;3.45;1.15;;;9.00;99.90;;;;;;5082375;28;20446;-91
2024/01/04 00:17:32;;;;;;;;;;;9.00;99.90;;;;;;5081522;28;20080;-90
2024/01/04 00:19:58;;;;;;;2.17;0.95;;;9.00;99.90;;;;;;5062569;28;19912;-91
2024/01/04 00:22:24;;;;;;;3.08;1.33;;;9.00;99.90;;;;;;5062999;28;20016;-91
2024/01/04 00:24:50;;;;;;;3.00;1.55;;;8.90;99.90;;;;;;5081208;28;20083;-92
2024/01/04 00:27:15;;;;;;;3.13;1.48;;;8.90;99.90;;;;;;5081727;28;20395;-90
2024/01/04 00:29:44;;;;;;;1.75;1.33;;;8.90;99.90;;;;;;5063202;28;20051;-91
2024/01/04 00:32:10;;;;;;;4.32;1.50;;;8.90;99.90;;;;;;5064435;28;20023;-90
2024/01/04 00:34:36;;;;;;;4.80;1.00;;;8.90;99.90;;;;;;5063051;28;20024;-90
2024/01/04 00:37:04;;;;;;;1.67;1.35;;;8.90;99.90;;;;;;5063320;28;20084;-91
2024/01/04 00:39:30;;;;;;;1.55;0.68;;;8.90;98.80;;;;;;5063175;28;20109;-90
2024/01/04 00:41:56;;;;;;;2.47;1.30;;;9.00;98.50;;;;;;5081425;28;20056;-90
2024/01/04 00:44:22;;;;;;;4.40;2.13;;;9.10;97.20;;;;;;5063974;28;20028;-91
2024/01/04 00:46:47;;;;;;;2.65;1.23;;;9.00;97.60;;;;;;5063520;28;20161;-91
2024/01/04 00:49:13;;;;;;;1.83;1.38;;;9.00;97.50;;;;;;5081026;28;20032;-90
2024/01/04 00:51:39;;;;;;;3.10;1.05;;;9.00;98.60;;;;;;5063266;28;20505;-91
2024/01/04 00:54:04;;;;;;;2.13;1.08;;;8.90;99.20;;;;;;5062805;28;20098;-89
2024/01/04 00:56:32;;;;;;;1.52;0.98;;;8.90;99.40;;;;;;5062336;28;20060;-90
2024/01/04 00:58:58;;;;;;;2.15;1.38;;;8.90;99.90;;;;;;5079975;28;20016;-90
2024/01/04 01:01:23;;;;;;;2.15;1.13;;;8.90;99.90;;;;;;5080020;28;20383;-91
2024/01/04 01:03:51;;;;;;;4.20;1.50;;;8.80;99.90;;;;;;5080298;28;20035;-89
2024/01/04 01:06:16;;;;;;;4.78;1.15;;;8.80;99.90;;;;;;5063772;28;20028;-90
2024/01/04 01:08:42;;;;;;;1.92;0.95;;;8.80;99.90;;;;;;5080653;28;20498;-90
2024/01/04 01:11:08;;;;;;;3.83;2.47;;;8.70;99.90;;;;;;5080889;28;20028;-91
2024/01/04 01:13:36;;;;;;;2.92;1.95;;;8.80;99.90;;;;;;5063163;28;20078;-89
2024/01/04 01:16:01;;;;;;;5.03;1.35;;;8.90;99.90;;;;;;5064292;28;20021;-91
2024/01/04 01:18:27;;;;;;;6.75;1.05;;;8.90;99.90;;;;;;5083859;28;20025;-90
2024/01/04 01:20:57;;;;;;;2.80;2.40;;;8.80;99.90;;;;;;5083064;28;20036;-90
2024/01/04 01:23:23;;;;;;;2.65;1.40;;;8.80;99.90;;;;;;5083205;28;20052;-91
2024/01/04 01:25:49;;;;;;;3.50;1.65;;;8.80;99.60;;;;;;5080945;28;20059;-90
2024/01/04 01:28:14;;;;;;;3.53;1.10;;;8.80;99.90;;;;;;5062462;28;20039;-90
2024/01/04 01:30:40;;;;;;;3.08;2.83;;;8.80;99.90;;;;;;5079718;28;20028;-90
2024/01/04 01:33:05;;;;;;;5.40;0.98;;;8.70;99.80;;;;;;5083050;28;20446;-90
2024/01/04 01:35:31;;;;;;;2.03;0.88;;;8.80;99.00;;;;;;5084403;28;20046;-90
2024/01/04 01:37:57;;;;;;;4.47;1.63;;;8.70;99.90;;;;;;5083616;28;20024;-90
2024/01/04 01:40:22;;;;;;;4.60;1.42;;;8.80;99.10;;;;;;5084512;28;20112;-90
2024/01/04 01:42:48;;;;;;;2.17;2.08;;;8.80;98.40;;;;;;5085418;28;20051;-90
2024/01/04 01:45:15;;;;;;;1.92;0.93;;;8.90;97.20;;;;;;5083882;28;20582;-89
2024/01/04 01:47:41;;;;;;;4.30;1.00;;;8.90;96.60;;;;;;5083301;28;20036;-90
2024/01/04 01:50:08;;;;;;;4.05;2.20;;;8.90;96.30;;;;;;5064535;28;20047;-90
2024/01/04 01:52:34;;;;;;;3.60;2.15;;;8.80;96.50;;;;;;5066838;28;20056;-91
2024/01/04 01:55:01;;;;;;;3.80;1.98;;;8.90;95.10;;;;;;5083485;28;20031;-91
2024/01/04 01:57:29;;;;;;;2.33;1.25;;;8.90;96.10;;;;;;5083619;28;20016;-89
2024/01/04 01:59:55;;;;;;;4.82;2.33;;;8.90;96.20;;;;;;5083802;28;20027;-92
2024/01/04 02:02:21;;;;;;;2.35;1.95;;;8.90;95.70;;;;;;5083693;28;20021;-89
2024/01/04 02:04:47;;;;;;;2.50;1.83;;;8.90;95.20;;;;;;5065343;28;20029;-91
2024/01/04 02:07:12;;;;;;;0.93;0.80;;;8.80;96.00;;;;;;5064762;28;20046;-89
2024/01/04 02:09:38;;;;;;;2.10;0.85;;;8.70;96.50;;;;;;5082862;28;20029;-89
2024/01/04 02:12:13;;;;;;;1.67;1.42;;;8.60;97.50;;;;;;5065169;28;20048;-91
2024/01/04 02:14:39;;;;;;;1.70;1.00;;;8.50;98.50;;;;;;5048641;28;20086;-91
2024/01/04 02:17:04;;;;;;;2.85;1.58;;;8.50;98.30;;;;;;5083041;28;20021;-91
2024/01/04 02:19:30;;;;;;;4.47;1.15;;;8.40;97.50;;;;;;5082762;28;20020;-92
2024/01/04 02:21:56;;;;;;;2.83;1.08;;;8.40;97.30;;;;;;5065358;28;20027;-90
2024/01/04 02:24:22;;;;;;;0.63;0.63;;;8.40;97.40;;;;;;5065396;28;20028;-90
2024/01/04 02:26:48;;;;;;;1.27;0.75;;;8.40;97.80;;;;;;5078370;28;20036;-91
2024/01/04 02:29:13;;;;;;;2.45;0.98;;;8.40;98.00;;;;;;5071816;28;20438;-90
2024/01/04 02:31:39;;;;;;;2.58;1.45;;;8.40;98.20;;;;;;5083031;28;20127;-91
2024/01/04 02:34:04;;;;;;;4.35;1.00;;;8.40;97.80;;;;;;5083199;28;20025;-91
2024/01/04 02:36:33;;;;;;;3.75;1.42;;;8.40;97.80;;;;;;5083227;28;20453;-90
2024/01/04 02:38:58;;;;;;;2.33;2.17;;;8.40;98.00;;;;;;5083450;28;20021;-90
2024/01/04 02:41:27;;;;;;;1.42;0.50;;;8.40;98.10;;;;;;5082526;28;20024;-90
2024/01/04 02:43:53;;;;;;;2.50;2.30;;;8.40;98.00;;;;;;5062875;28;20081;-90
2024/01/04 02:46:18;;;;;;;2.05;0.98;;;8.40;98.90;;;;;;5081064;28;20037;-90
2024/01/04 02:48:44;;;;;;;2.47;1.98;;;8.30;99.10;;;;;;5077442;28;20032;-91
2024/01/04 02:51:10;;;;;;;2.05;1.92;;;8.40;98.70;;;;;;5052711;28;20037;-89
2024/01/04 02:53:35;;;;;;;3.70;0.77;;;8.40;99.10;;;;;;5065025;28;20483;-91
2024/01/04 02:56:02;;;;;;;1.02;0.70;;;8.40;99.40;;;;;;5082172;28;20020;-89
2024/01/04 02:58:28;;;;;;;1.67;0.98;;;8.40;99.80;;;;;;5081922;28;20070;-90
2024/01/04 03:00:54;;;;;;;2.35;2.15;;;8.40;99.80;;;;;;5082655;28;20462;-91
2024/01/04 03:03:20;;;;;;;2.15;1.88;;;8.40;99.60;;;;;;5082118;28;20103;-91
2024/01/04 03:05:45;;;;;;;2.17;1.48;;;8.40;99.90;;;;;;5081485;28;20047;-90
2024/01/04 03:08:11;;;;;;;2.15;0.82;;;8.40;99.90;;;;;;5064707;28;20100;-90
2024/01/04 03:10:37;;;;;;;1.63;1.10;;;8.40;99.90;;;;;;5082895;28;20028;-91
2024/01/04 03:13:05;;;;;;;1.75;0.70;;;8.40;99.90;;;;;;5082487;28;20137;-91
2024/01/04 03:15:31;;;;;;;3.55;1.13;;;8.40;99.90;;;;;;5082333;28;20054;-91
2024/01/04 03:17:57;;;;;;;1.40;1.15;;;8.50;99.90;;;;;;5064092;28;20036;-91
2024/01/04 03:20:22;;;;;;;3.88;1.17;;;8.40;99.90;;;;;;5082367;28;20025;-89
2024/01/04 03:22:48;;;;;;;3.95;1.92;;;8.50;99.90;;;;;;5081397;28;20035;-90
2024/01/04 03:25:14;;;;;;;2.58;1.83;;;8.50;99.90;;;;;;5081530;28;20502;-90
2024/01/04 03:27:39;;;;;;;1.65;0.60;;;8.50;99.90;;;;;;5081637;28;20024;-91
2024/01/04 03:30:07;;;;;;;3.53;2.72;;;8.50;99.90;;;;;;5081999;28;20031;-90
2024/01/04 03:32:33;;;;;;;4.10;1.75;;;8.60;99.90;;;;;;5082511;28;20029;-91
2024/01/04 03:34:59;;;;;;;4.20;1.25;;;8.60;99.90;;;;;;5082456;28;20070;-91
2024/01/04 03:37:24;;;;;;;5.43;2.45;;;8.70;99.90;;;;;;5063821;28;20322;-89
2024/01/04 03:39:50;;;;;;;2.70;1.02;;;8.60;99.90;;;;;;5063367;28;20550;-89
2024/01/04 03:42:16;;;;;;;5.90;1.77;;;8.70;99.80;;;;;;5081964;28;20020;-90
2024/01/04 03:44:42;;;;;;;2.58;0.90;;;8.80;99.00;;;;;;5063830;28;20048;-92
2024/01/04 03:47:08;;;;;;;6.00;2.55;;;8.90;98.60;;;;;;5080332;28;20031;-91
2024/01/04 03:49:34;;;;;;;6.38;1.10;;;8.80;98.00;;;;;;5081101;28;20084;-91
2024/01/04 03:52:00;;;;;;;5.05;1.13;;;8.80;98.60;;;;;;5063082;28;20106;-91
2024/01/04 03:54:25;;;;;;;2.92;1.20;;;8.90;98.20;;;;;;5080987;28;20013;-90
2024/01/04 03:56:53;;;;;;;5.47;3.22;;;8.90;98.20;;;;;;5063194;28;20020;-90
2024/01/04 03:59:18;;;;;;;6.40;1.58;;;8.90;99.00;;;;;;5080508;28;20024;-91
2024/01/04 04:01:45;;;;;;;2.88;1.10;;;8.90;98.50;;;;;;5081243;28;20077;-90
2024/01/04 04:04:12;;;;;;;6.60;1.27;;;8.90;99.40;;;;;;5081125;28;20056;-91
2024/01/04 04:06:38;;;;;;;3.90;1.48;;;8.80;99.10;;;;;;5080400;28;20021;-90
2024/01/04 04:09:07;;;;;;;3.75;1.00;;;8.80;99.80;;;;;;5080756;28;20109;-93
2024/01/04 04:11:34;;;;;;;4.97;1.55;;;8.80;99.90;;;;;;5056033;28;20082;-90
2024/01/04 04:14:00;;;;;;;3.80;1.08;;;8.80;99.90;;;;;;5080469;28;20035;-89
2024/01/04 04:16:25;;;;;;;4.03;2.97;;;8.90;99.30;;;;;;5080826;28;20032;-90
2024/01/04 04:18:51;;;;;;;6.68;1.63;;;8.90;99.10;;;;;;5080718;28;20024;-92
2024/01/04 04:21:21;;;;;;;4.28;1.23;;;8.90;98.20;;;;;;5080900;28;20025;-90
2024/01/04 04:23:49;;;;;;;5.93;1.13;;;8.90;97.20;;;;;;5082483;28;20024;-90
2024/01/04 04:26:20;;;;;;;6.88;3.42;;;9.00;97.90;;;;;;5081197;28;20487;-90
2024/01/04 04:28:49;;;;;;;5.10;1.17;;;9.00;97.90;;;;;;5063427;28;20025;-90
2024/01/04 04:31:16;;;;;;;4.85;1.10;;;9.00;97.60;;;;;;5081650;28;20095;-92
2024/01/04 04:33:44;;;;;;;5.63;1.10;;;9.00;97.30;;;;;;5064225;28;20032;-91
2024/01/04 04:36:11;;;;;;;5.20;1.75;;;8.90;98.10;;;;;;5081838;28;20021;-91
2024/01/04 04:38:36;;;;;;;5.60;1.20;;;9.00;97.50;;;;;;5084998;28;20020;-91
2024/01/04 04:41:06;;;;;;;5.57;1.52;;;9.00;96.70;;;;;;5083638;28;20326;-90
2024/01/04 04:43:33;;;;;;;3.30;2.50;;;9.00;96.60;;;;;;5082709;28;20027;-91
2024/01/04 04:46:01;;;;;;;3.42;1.10;;;9.00;97.10;;;;;;5057475;28;20024;-89
2024/01/04 04:48:27;;;;;;;4.18;1.50;;;9.00;97.30;;;;;;5061324;28;20038;-91
2024/01/04 04:50:53;;;;;;;2.08;1.58;;;9.00;97.50;;;;;;5079132;28;20052;-90
2024/01/04 04:53:20;;;;;;;3.10;2.60;;;9.00;98.00;;;;;;5079756;28;20025;-90
2024/01/04 04:55:46;;;;;;;1.80;1.00;;;8.90;97.70;;;;;;5061973;28;20060;-90
2024/01/04 04:58:11;;;;;;;3.72;2.42;;;8.90;97.60;;;;;;5079630;28;20023;-91
2024/01/04 05:00:37;;;;;;;4.75;1.67;;;9.00;96.70;;;;;;5080253;28;20031;-89
2024/01/04 05:03:03;;;;;;;2.13;0.93;;;9.00;96.50;;;;;;5062227;28;20414;-91
2024/01/04 05:05:29;;;;;;;4.35;2.45;;;9.00;95.80;;;;;;5044230;28;20028;-90
2024/01/04 05:07:55;;;;;;;5.47;1.65;;;9.00;96.50;;;;;;5073260;28;20028;-89
2024/01/04 05:10:21;;;;;;;5.60;1.08;;;9.00;96.10;;;;;;5070983;28;20047;-91
2024/01/04 05:12:48;;;;;;;6.38;1.00;;;8.90;96.50;;;;;;5060075;28;20032;-89
2024/01/04 05:15:14;;;;;;;7.00;1.25;;;9.00;97.00;;;;;;5078169;28;20028;-91
2024/01/04 05:17:39;;;;;;;2.50;0.88;;;9.00;96.80;;;;;;5063013;28;20476;-90
2024/01/04 05:20:06;;;;;;;4.68;0.98;;;8.90;96.90;;;;;;5079740;28;20028;-90
2024/01/04 05:22:34;;;;;;;4.03;1.55;;;9.00;96.90;;;;;;5061586;28;20124;-90
2024/01/04 05:25:00;;;;;;;7.03;2.10;;;9.00;96.00;;;;;;5079337;28;20020;-92
2024/01/04 05:27:26;;;;;;;4.88;1.30;;;9.00;95.60;;;;;;5061951;28;20474;-91
2024/01/04 05:29:51;;;;;;;4.93;1.58;;;9.00;95.80;;;;;;5079400;28;20020;-91
2024/01/04 05:32:18;;;;;;;4.53;1.30;;;9.00;95.30;;;;;;5079261;28;20502;-90
2024/01/04 05:34:44;;;;;;;2.58;1.48;;;9.00;95.10;;;;;;5061107;28;20067;-90
2024/01/04 05:37:09;;;;;;;7.40;1.70;;;9.00;94.30;;;;;;5060719;28;20016;-92
2024/01/04 05:39:35;;;;;;;3.38;2.35;;;9.10;94.00;;;;;;5078995;28;20024;-91
2024/01/04 05:42:01;;;;;;;3.95;1.23;;;9.10;93.80;;;;;;5061072;28;20020;-92
2024/01/04 05:44:27;;;;;;;5.68;2.65;;;9.10;93.20;;;;;;5061212;28;20496;-91
2024/01/04 05:46:53;;;;;;;10.30;1.73;;;9.10;95.10;;;;;;5060062;28;20043;-92
2024/01/04 05:49:18;;;;;;;5.75;1.63;;;9.00;94.70;;;;;;5060362;28;20416;-90
2024/01/04 05:51:44;;;;;;;9.48;1.40;;;8.90;97.60;;;;;;5067631;28;20021;-91
2024/01/04 05:54:10;;;;;;;5.22;1.17;;;8.90;98.00;;;;;;5057761;28;20028;-91
2024/01/04 05:56:36;;;;;;;5.65;1.08;;;8.90;97.40;;;;;;5078797;28;20386;-92
2024/01/04 05:59:01;;;;;;;3.28;1.45;;;8.90;96.50;;;;;;5079523;28;20016;-91
2024/01/04 06:01:27;;;;;;;8.27;2.75;;;9.00;96.40;;;;;;5080587;28;20398;-92
2024/01/04 06:03:53;;;;;;;4.53;1.48;;;9.00;95.00;;;;;;5061318;28;20032;-90
2024/01/04 06:06:19;;;;;;;8.90;2.38;;;9.00;95.40;;;;;;5079235;28;20032;-92
2024/01/04 06:08:45;;;;;;;10.10;1.55;;;9.00;95.10;;;;;;5060516;28;20041;-90
2024/01/04 06:11:11;;;;;;;7.25;2.45;;;9.00;94.10;;;;;;5079181;28;20024;-91
2024/01/04 06:13:37;;;;;;;9.73;1.75;;;9.00;94.90;;;;;;5079532;28;20024;-92
2024/01/04 06:16:07;;;;;;;8.68;2.63;;;9.00;94.00;;;;;;5061879;28;20390;-91
2024/01/04 06:18:33;;;;;;;6.38;3.70;;;9.00;93.50;;;;;;5060646;28;20177;-90
2024/01/04 06:20:59;;;;;;;4.45;1.00;;;9.00;93.90;;;;;;5082713;28;20027;-91
2024/01/04 06:23:26;;;;;;;6.10;1.63;;;9.00;92.70;;;;;;5083043;28;20096;-90
2024/01/04 06:25:51;;;;;;;5.95;1.60;;;9.00;93.70;;;;;;5065037;28;20036;-93
2024/01/04 06:28:17;;;;;;;5.43;2.28;;;9.00;94.20;;;;;;5082385;28;20117;-90
2024/01/04 06:30:43;;;;;;;3.28;1.13;;;9.00;93.80;;;;;;5082947;28;20036;-91
2024/01/04 06:33:08;;;;;;;4.10;3.25;;;9.00;93.70;;;;;;5064270;28;20020;-91
2024/01/04 06:35:34;;;;;;;5.50;1.08;;;9.00;93.00;;;;;;5082395;28;20050;-90
2024/01/04 06:38:02;;;;;;;10.18;2.00;;;9.00;93.50;;;;;;5063470;28;20029;-91
2024/01/04 06:40:28;;;;;;;7.82;2.70;;;9.10;93.50;;;;;;5062810;28;20021;-91
2024/01/04 06:42:55;;;;;;;6.80;1.45;;;9.00;93.20;;;;;;5065467;28;20020;-90
2024/01/04 06:45:22;;;;;;;4.63;1.15;;;9.00;93.40;;;;;;5083229;28;20024;-93
2024/01/04 06:47:49;;;;;;;6.72;2.42;;;9.00;94.80;;;;;;5083096;28;20021;-90
2024/01/04 06:50:14;;;;;;;8.05;1.17;;;8.90;95.80;;;;;;5082742;28;20043;-91
2024/01/04 06:52:40;;;;;;;9.13;3.40;;;8.80;96.70;;;;;;5064149;28;20028;-90
2024/01/04 06:55:06;;;;;;;10.35;2.55;;;8.90;95.50;;;;;;5082306;28;20021;-90
2024/01/04 06:57:32;;;;;;;5.43;2.97;;;8.90;95.40;;;;;;5063962;28;20055;-90
2024/01/04 06:59:57;;;;;;;8.38;1.15;;;8.90;94.80;;;;;;5082250;28;20020;-91
2024/01/04 07:02:23;;;;;;;9.85;4.22;;;8.90;95.50;;;;;;5083017;28;20031;-90
2024/01/04 07:04:49;;;;;;;3.03;2.13;;;8.90;94.10;;;;;;5065793;28;20065;-91
2024/01/04 07:07:14;;;;;;;6.07;1.80;;;8.90;92.60;;;;;;5082896;28;20036;-91
2024/01/04 07:09:40;;;;;;;8.10;1.48;;;8.90;93.50;;;;;;5083644;28;20053;-90
2024/01/04 07:12:07;;;;;;;5.63;1.10;;;8.90;93.80;;;;;;5082709;28;20027;-91
2024/01/04 07:14:38;;;;;;;7.28;1.92;;;9.00;91.00;;;;;;5064232;28;20029;-91
2024/01/04 07:17:03;;;;;;;7.57;1.13;;;8.90;91.90;;;;;;5064788;28;20024;-92
2024/01/04 07:19:29;;;;;;;7.35;1.42;;;9.00;90.50;;;;;;5082825;28;20052;-91
2024/01/04 07:21:55;;;;;;;6.82;1.58;;;9.00;90.30;;;;;;5082328;28;20020;-90
2024/01/04 07:24:21;;;;;;;7.80;1.38;;;9.10;89.00;;;;;;5065783;28;20032;-90
2024/01/04 07:26:50;;;;;;;7.47;2.45;;;9.10;88.50;;;;;;5081801;28;20035;-92
2024/01/04 07:29:15;;;;;;;5.32;3.15;;;9.10;88.00;;;;;;5080629;28;20108;-91
2024/01/04 07:31:41;;;;;;;9.93;3.25;;;9.00;88.10;;;;;;5080762;28;20093;-91
2024/01/04 07:34:07;;;;;;;7.82;1.83;;;9.10;86.90;;;;;;5081337;28;20525;-91
2024/01/04 07:36:34;;;;;;;9.52;2.97;;;9.00;87.40;;;;;;5082134;28;20021;-91
2024/01/04 07:39:00;;;;;;;6.85;1.67;;;9.10;87.50;;;;;;5063499;28;20028;-92
2024/01/04 07:41:26;;;;;;;11.73;3.72;;;9.10;87.10;;;;;;5064719;28;20017;-92
2024/01/04 07:43:52;;;;;;;6.72;1.88;;;9.00;87.10;;;;;;5082043;28;20054;-91
2024/01/04 07:46:17;;;;;;;6.53;2.63;;;9.10;85.60;;;;;;5082180;28;20070;-92
2024/01/04 07:48:44;;;;;;;4.47;3.30;;;9.00;86.30;;;;;;5081306;28;20119;-91
2024/01/04 07:51:09;;;;;;;5.00;2.78;;;9.00;84.70;;;;;;5066684;28;20034;-91
2024/01/04 07:53:35;;;;;;;8.77;1.55;;;9.00;85.40;;;;;;5084270;28;20056;-90
2024/01/04 07:56:01;;;;;;;7.68;1.70;;;9.00;84.00;;;;;;5086828;28;20020;-91
2024/01/04 07:58:27;;;;;;;8.48;1.15;;;9.10;83.40;;;;;;5071040;28;20070;-91
2024/01/04 08:00:53;;;;;;;5.68;2.67;;;9.10;84.30;;;;;;5089807;28;20024;-91
2024/01/04 08:03:18;;;;;;;7.80;1.88;;;9.00;84.00;;;;;;5083749;28;20040;-91
2024/01/04 08:05:44;;;;;;;7.25;1.13;;;9.00;85.60;;;;;;5085294;28;20028;-91
2024/01/04 08:08:09;;;;;;;5.22;1.38;;;9.00;86.20;;;;;;5083821;28;20054;-91
2024/01/04 08:10:35;;;;;;;5.07;4.07;;;8.90;85.90;;;;;;5064728;28;20029;-90
2024/01/04 08:13:01;;;;;;;5.18;1.33;;;8.90;86.10;;;;;;5081282;28;20025;-91
2024/01/04 08:15:26;;;;;;;8.95;1.63;;;8.80;86.10;;;;;;5082775;28;20025;-90
2024/01/04 08:17:52;;;;;;;4.30;2.22;;;8.90;85.20;;;;;;5080813;28;20025;-91
2024/01/04 08:20:19;;;;;;;4.80;0.98;;;8.80;85.00;;;;;;5081399;28;20318;-90
2024/01/04 08:22:45;;;;;;;7.50;1.83;;;8.90;85.30;;;;;;5074036;28;20379;-91
2024/01/04 08:25:11;;;;;;;6.95;1.52;;;8.90;84.70;;;;;;5081000;28;20104;-91
2024/01/04 08:27:36;;;;;;;5.82;1.40;;;8.90;85.10;;;;;;5086174;28;20474;-92
2024/01/04 08:30:02;;;;;;;6.18;1.58;;;8.90;84.40;;;;;;5080052;28;20490;-89
2024/01/04 08:32:28;;;;;;;7.03;1.52;;;9.10;83.80;;;;;;5062191;28;20036;-92
2024/01/04 08:34:54;;;;;;;6.28;1.52;;;9.10;83.20;;;;;;5080308;28;20021;-92
2024/01/04 08:37:20;;;;;;;5.93;1.60;;;9.10;83.10;;;;;;5061342;28;20029;-91
2024/01/04 08:39:46;;;;;;;7.50;1.35;;;9.10;83.10;;;;;;5062315;28;20025;-91
2024/01/04 08:42:12;;;;;;;6.90;1.20;;;9.10;84.00;;;;;;5081639;28;20017;-91
2024/01/04 08:44:38;;;;;;;10.15;3.05;;;9.10;83.00;;;;;;5057454;28;20463;-92
2024/01/04 08:47:03;;;;;;;9.60;3.67;;;9.10;83.80;;;;;;5060408;28;20044;-91
2024/01/04 08:49:29;;;;;;;6.57;1.40;;;9.10;83.50;;;;;;5070860;28;20024;-90
2024/01/04 08:51:55;;;;;;;3.88;1.08;;;9.20;82.90;;;;;;5074353;28;20024;-91
2024/01/04 08:54:21;;;;;;;7.50;2.05;;;9.20;84.50;;;;;;5078941;28;20023;-92
2024/01/04 08:56:46;;;;;;;5.45;1.83;;;9.10;85.50;;;;;;5061627;28;20024;-92
2024/01/04 08:59:12;;;;;;;7.25;1.92;;;9.00;86.40;;;;;;5077807;28;20444;-92
2024/01/04 09:01:38;;;;;;;4.47;2.42;;;9.10;87.30;;;;;;5061712;28;20023;-89
2024/01/04 09:04:03;;;;;;;5.13;1.30;;;9.10;87.40;;;;;;5081128;28;20036;-91
2024/01/04 09:06:31;;;;;;;5.65;1.83;;;9.10;87.50;;;;;;5081682;28;20080;-91
2024/01/04 09:08:59;;;;;;;7.00;2.85;;;9.10;87.00;;;;;;5062893;28;20100;-91
2024/01/04 09:11:27;;;;;;;8.85;2.92;;;9.10;86.50;;;;;;5062674;28;20098;-91
2024/01/04 09:13:53;;;;;;;5.03;2.70;;;9.10;86.50;;;;;;5081425;28;20024;-90
2024/01/04 09:16:19;;;;;;;4.75;2.53;;;9.10;85.50;;;;;;5082649;28;20021;-90
2024/01/04 09:18:46;;;;;;;4.68;2.17;;;9.10;87.00;;;;;;5060459;28;20025;-90
2024/01/04 09:21:12;;;;;;;8.27;3.15;;;9.10;85.40;;;;;;5078973;28;20047;-92
2024/01/04 09:23:38;;;;;;;4.88;2.83;;;9.10;84.50;;;;;;5065146;28;20017;-92
2024/01/04 09:26:08;;;;;;;3.40;1.25;;;9.20;84.20;;;;;;5072037;28;20051;-92
2024/01/04 09:28:34;;;;;;;7.93;2.47;;;9.20;83.30;;;;;;5070499;28;20035;-91
2024/01/04 09:31:00;;;;;;;4.22;2.35;;;9.20;83.50;;;;;;5062849;28;20024;-93
2024/01/04 09:33:26;;;;;;;4.50;0.95;;;9.20;84.10;;;;;;5068200;28;20543;-91
2024/01/04 09:35:52;;;;;;;7.53;1.58;;;9.20;84.20;;;;;;5065935;28;20071;-91
2024/01/04 09:38:19;;;;;;;5.88;1.00;;;9.30;83.80;;;;;;5047870;28;20471;-90
2024/01/04 09:40:45;;;;;;;8.25;1.45;;;9.30;83.50;;;;;;5064151;28;20024;-90
2024/01/04 09:43:15;;;;;;;9.65;1.38;;;9.30;83.10;;;;;;5068202;28;20052;-90
2024/01/04 09:45:43;;;;;;;7.97;2.65;;;9.30;84.70;;;;;;5069394;28;20016;-90
2024/01/04 09:48:12;;;;;;;6.18;1.95;;;9.30;83.20;;;;;;5045573;28;20040;-91
2024/01/04 09:50:39;;;;;;;6.10;1.23;;;9.40;83.40;;;;;;5053532;28;20055;-92
2024/01/04 09:53:06;;;;;;;9.98;2.55;;;9.40;84.50;;;;;;5082071;28;20016;-91
2024/01/04 09:55:35;;;;;;;5.60;2.58;;;9.40;84.80;;;;;;5069774;28;20036;-90
2024/01/04 09:58:02;;;;;;;5.78;3.72;;;9.50;84.80;;;;;;5083747;28;20043;-91
2024/01/04 10:00:28;;;;;;;4.63;1.95;;;9.40;83.80;;;;;;5069818;28;20439;-90
2024/01/04 10:02:55;;;;;;;6.22;1.38;;;9.50;85.40;;;;;;5065855;28;20402;-90
2024/01/04 10:05:22;;;;;;;4.78;1.55;;;9.50;83.50;;;;;;5066097;28;20028;-92
2024/01/04 10:08:09;;;;;;;10.63;2.28;;;9.60;83.40;;;;;;5082808;28;20024;-91
2024/01/04 10:10:40;;;;;;;9.45;2.03;;;9.70;83.30;;;;;;5087434;28;20047;-92
2024/01/04 10:13:08;;;;;;;5.50;1.40;;;9.70;83.40;;;;;;5087600;28;20036;-92
2024/01/04 10:15:36;;;;;;;;;;;9.70;83.40;;;;;;5066009;28;20087;-92
2024/01/04 10:18:02;;;;;;;6.35;1.38;;;9.80;82.80;;;;;;5086907;28;19905;-94
2024/01/04 10:20:29;;;;;;;4.63;1.38;;;9.70;82.30;;;;;;5082630;28;20013;-91
2024/01/04 10:22:57;;;;;;;5.25;2.92;;;9.60;82.50;;;;;;5085468;28;20070;-91
2024/01/04 10:25:23;;;;;;;5.32;2.20;;;9.30;85.10;;;;;;5073266;28;20096;-92
2024/01/04 10:27:56;;;;;;;2.47;0.93;;;9.30;85.30;;;;;;5089202;28;20033;-94
2024/01/04 10:30:22;;;;;;;3.80;1.60;;;9.20;85.50;;;;;;5095672;28;20020;-94
2024/01/04 10:32:51;;;;;;;2.42;2.22;;;9.10;85.50;;;;;;5098945;28;20033;-95
2024/01/04 10:35:27;;;;;;;3.50;1.20;;;9.00;84.90;;;;;;5080100;28;20017;-93
2024/01/04 10:38:00;;;;;;;5.18;2.53;;;9.00;86.50;;;;;;5098686;28;20043;-95
2024/01/04 10:40:26;;;;;;;3.38;1.15;;;9.00;85.30;;;;;;5077582;28;20040;-92
2024/01/04 10:42:53;;;;;;;5.15;1.55;;;9.00;84.40;;;;;;5066402;28;20032;-91
2024/01/04 10:45:29;;;;;;;6.93;2.65;;;9.20;84.50;;;;;;5076882;28;20028;-90
2024/01/04 10:47:55;;;;;;;2.78;0.93;;;9.50;82.40;;;;;;5090489;28;20025;-92
2024/01/04 10:50:25;;;;;;;5.70;2.40;;;9.60;83.00;;;;;;5083081;28;20024;-93
2024/01/04 10:52:57;;;;;;;6.57;1.73;;;9.80;81.50;;;;;;5057492;28;20397;-91
2024/01/04 10:55:24;;;;;;;7.22;1.20;;;9.80;81.90;;;;;;5072437;28;20032;-91
2024/01/04 10:57:51;;;;;;;7.00;3.25;;;9.80;82.80;;;;;;5081298;28;20020;-92
2024/01/04 11:00:18;;;;;;;3.22;2.08;;;9.80;84.10;;;;;;5081404;28;20467;-94
2024/01/04 11:02:45;;;;;;;2.75;2.20;;;9.80;84.20;;;;;;5083440;28;20084;-89
2024/01/04 11:05:11;;;;;;;3.47;1.15;;;9.90;84.60;;;;;;5082950;28;20062;-92
2024/01/04 11:07:40;;;;;;;5.00;1.45;;;10.10;84.10;;;;;;5063406;28;20024;-92
2024/01/04 11:10:09;;;;;;;5.00;2.80;;;10.00;84.50;;;;;;5082152;28;20256;-90
2024/01/04 11:12:37;;;;;;;3.60;1.08;;;9.80;85.80;;;;;;5082101;28;20032;-92
2024/01/04 11:15:08;;;;;;;4.13;2.05;;;9.50;90.30;;;;;;5081877;28;20085;-91
2024/01/04 11:18:06;;;;;;;4.95;2.33;;;9.40;91.80;;;;;;5081961;28;20046;-92
2024/01/04 11:21:02;;;;;;;7.65;1.08;;;9.50;89.90;;;;;;5065106;28;20051;-92
2024/01/04 11:24:07;;;;;;;4.07;1.45;;;9.60;89.60;;;;;;5065557;28;20021;-91
2024/01/04 11:26:43;;;;;;;6.40;1.88;;;9.50;93.60;;;;;;5084142;28;20025;-92
2024/01/04 11:29:10;;;;;;;5.13;1.25;;;9.10;95.60;;;;;;5083603;28;20040;-92
2024/01/04 11:31:45;;;;;;;6.20;1.75;;;8.90;99.80;;;;;;5074348;28;20055;-92
2024/01/04 11:34:13;;;;;;;5.35;1.85;;;8.80;99.90;;;;;;5082765;28;20036;-91
2024/01/04 11:36:39;;;;;;;;;;;9.00;94.20;;;;;;5074138;28;20020;-90
2024/01/04 11:39:05;;;;;;;4.10;1.75;;;9.10;88.80;;;;;;5081115;28;19916;-92
2024/01/04 11:41:34;;;;;;;3.42;1.15;;;9.10;87.80;;;;;;5064350;28;20041;-93
2024/01/04 11:44:01;;;;;;;4.97;1.00;;;9.10;84.80;;;;;;5082552;28;20084;-93
2024/01/04 11:46:26;;;;;;;5.55;1.95;;;9.10;85.70;;;;;;5080444;28;20112;-91
2024/01/04 11:48:52;;;;;;;4.20;1.20;;;9.40;84.00;;;;;;5063416;28;20063;-92
2024/01/04 11:51:49;;;;;;;4.03;1.58;;;9.80;85.20;;;;;;5080849;28;20028;-92
2024/01/04 11:54:17;;;;;;;5.10;0.85;;;10.10;83.50;;;;;;5081000;28;20037;-92
2024/01/04 11:56:43;;;;;;;3.75;1.15;;;10.20;85.40;;;;;;5082187;28;20023;-93
2024/01/04 11:59:13;;;;;;;4.20;2.67;;;10.40;83.80;;;;;;5075020;28;20024;-93
2024/01/04 12:01:43;;;;;;;5.13;2.70;;;10.30;85.40;;;;;;5073555;28;20013;-91
2024/01/04 12:04:16;;;;;;;8.38;2.85;;;9.90;87.80;;;;;;5081429;28;20029;-92
2024/01/04 12:06:43;;;;;;;8.15;3.47;;;9.70;88.40;;;;;;5082268;28;20032;-93
2024/01/04 12:09:10;;;;;;;6.15;2.90;;;9.40;89.00;;;;;;5082142;28;20020;-93
2024/01/04 12:11:38;;;;;;;8.07;1.83;;;9.40;89.90;;;;;;5081440;28;20032;-89
2024/01/04 12:14:05;;;;;;;;;;;9.20;90.50;;;;;;5078177;28;20293;-93
2024/01/04 12:16:30;;;;;;;;;;;9.20;91.00;;;;;;5081759;28;19915;-90
2024/01/04 12:19:01;;;;;;;8.10;1.48;;;9.40;89.00;;;;;;5060961;28;19908;-92
2024/01/04 12:21:27;;;;;;;4.03;1.55;;;9.20;90.00;;;;;;5081631;28;20046;-92
2024/01/04 12:23:53;;;;;;;7.78;1.20;;;9.20;89.80;;;;;;5081459;28;20095;-93
2024/01/04 12:26:23;;;;;;;6.72;2.08;;;9.10;90.50;;;;;;5055040;28;20028;-91
2024/01/04 12:28:51;;;;;;;14.27;2.38;;;9.10;90.00;;;;;;5064036;28;20035;-91
2024/01/04 12:31:17;;;;;;;26.70;2.25;;;9.10;90.90;;;;;;5076779;28;20025;-92
2024/01/04 12:33:42;;;;;;;9.48;2.00;;;9.10;88.70;;;;;;5085595;28;20271;-92
2024/01/04 12:36:08;;;;;;;5.38;1.83;;;9.20;88.00;;;;;;5082937;28;20352;-92
2024/01/04 12:38:34;;;;;;;10.82;2.85;;;9.30;87.60;;;;;;5079800;28;20020;-91
2024/01/04 12:41:00;;;;;;;8.13;2.13;;;9.40;87.80;;;;;;5061466;28;20078;-91
2024/01/04 12:43:26;;;;;;;8.95;2.42;;;9.40;87.70;;;;;;5080189;28;20035;-91
2024/01/04 12:46:04;;;;;;;7.95;4.15;;;9.50;88.90;;;;;;5079574;28;20024;-92
2024/01/04 12:48:30;;;;;;;6.20;3.47;;;9.60;89.30;;;;;;5079819;28;20040;-91
2024/01/04 12:51:08;;;;;;;10.02;3.72;;;9.70;87.60;;;;;;5078702;28;20032;-92
2024/01/04 12:53:34;;;;;;;5.88;2.28;;;9.90;86.40;;;;;;5086829;28;20227;-93
2024/01/04 12:56:00;;;;;;;4.65;2.33;;;9.90;81.10;;;;;;5072167;28;20025;-93